createdAt,value
2017-05-26T00:00:02.825Z,95.3
2017-05-26T00:10:02.519Z,94.87
2017-05-26T00:20:02.778Z,96.13
2017-05-26T00:30:02.241Z,96.68
2017-05-26T00:40:02.232Z,97.92
2017-05-26T00:50:02.690Z,97.88
2017-05-26T01:00:02.207Z,97.54
2017-05-26T01:10:02.223Z,97.41
2017-05-26T01:20:02.532Z,97.6
2017-05-26T01:30:02.996Z,97.73
2017-05-26T01:40:02.586Z,97.76
2017-05-26T01:50:02.617Z,97.08
2017-05-26T02:00:02.078Z,97.38
2017-05-26T02:10:02.123Z,97.78
2017-05-26T02:20:02.718Z,97.99
2017-05-26T02:30:02.192Z,97.67
2017-05-26T02:40:02.523Z,97.65
2017-05-26T02:50:02.739Z,97.64
2017-05-26T03:00:02.223Z,97.79
2017-05-26T03:10:02.117Z,97.91
2017-05-26T03:20:02.930Z,97.68
2017-05-26T03:30:02.384Z,97.62
2017-05-26T03:40:02.243Z,97.41
2017-05-26T03:50:02.541Z,97.89
2017-05-26T04:00:02.953Z,96.79
2017-05-26T04:10:02.943Z,97.42
2017-05-26T04:20:02.560Z,96.78
2017-05-26T04:30:02.046Z,96.79
2017-05-26T04:40:02.531Z,96.94
2017-05-26T04:50:02.146Z,96.79
2017-05-26T05:00:02.634Z,96.18
2017-05-26T05:10:02.891Z,95.49
2017-05-26T05:20:02.189Z,94.35
2017-05-26T05:30:02.644Z,94.48
2017-05-26T05:40:02.108Z,94.24
2017-05-26T05:50:02.757Z,94
2017-05-26T06:00:02.268Z,94.05
2017-05-26T06:10:02.390Z,93.09
2017-05-26T06:20:02.390Z,92.34
2017-05-26T06:30:02.847Z,92.93
2017-05-26T06:40:02.061Z,91.59
2017-05-26T06:50:03.030Z,91.39
2017-05-26T07:00:02.429Z,91.46
2017-05-26T07:10:02.285Z,91.17
2017-05-26T07:20:02.882Z,90.14
2017-05-26T07:30:02.306Z,89.58
2017-05-26T07:40:02.995Z,88.39
2017-05-26T07:50:02.906Z,87.21
2017-05-26T08:00:02.369Z,85.93
2017-05-26T08:10:02.180Z,80.38
2017-05-26T08:20:02.074Z,77.06
2017-05-26T08:30:02.599Z,74.91
2017-05-26T08:40:02.668Z,72.6
2017-05-26T08:50:02.379Z,72.9
2017-05-26T09:00:02.836Z,70.61
2017-05-26T09:10:02.526Z,68.68
2017-05-26T09:20:02.195Z,66.52
2017-05-26T09:30:02.685Z,68.02
2017-05-26T09:40:02.050Z,65.83
2017-05-26T09:50:02.222Z,65.22
2017-05-26T10:00:02.728Z,63.97
2017-05-26T10:10:02.857Z,62.45
2017-05-26T10:20:02.738Z,63.4
2017-05-26T10:30:02.231Z,64.01
2017-05-26T10:40:02.372Z,63.9
2017-05-26T10:50:02.128Z,62.95
2017-05-26T11:00:02.584Z,60.46
2017-05-26T11:10:02.547Z,61.12
2017-05-26T11:20:03.007Z,59.19
2017-05-26T11:30:02.488Z,58.08
2017-05-26T11:40:02.974Z,55.37
2017-05-26T11:50:02.058Z,55.99
2017-05-26T12:00:02.473Z,54.24
2017-05-26T12:10:02.777Z,55.8
2017-05-26T12:20:02.223Z,53.6
2017-05-26T12:30:02.699Z,52.96
2017-05-26T12:40:02.223Z,52.16
2017-05-26T12:50:02.161Z,53.28
2017-05-26T13:00:02.644Z,52.58
2017-05-26T13:10:02.083Z,52.96
2017-05-26T13:20:02.381Z,53.09
2017-05-26T13:30:02.829Z,52.55
2017-05-26T13:40:02.357Z,51.55
2017-05-26T13:50:02.409Z,48.59
2017-05-26T14:00:02.930Z,51.09
2017-05-26T14:10:02.571Z,49.01
2017-05-26T14:20:02.488Z,50.25
2017-05-26T14:30:02.967Z,48.82
2017-05-26T14:40:02.426Z,49.04
2017-05-26T14:50:02.113Z,49.74
2017-05-26T15:00:02.577Z,49.96
2017-05-26T15:10:02.258Z,50.45
2017-05-26T15:20:02.721Z,48.95
2017-05-26T15:30:02.193Z,50.19
2017-05-26T15:40:02.823Z,50.69
2017-05-26T15:50:02.394Z,49.15
2017-05-26T16:00:02.865Z,49.79
2017-05-26T16:10:02.228Z,49.55
2017-05-26T16:20:02.770Z,49.29
2017-05-26T16:30:02.217Z,48.88
2017-05-26T16:40:02.729Z,50.58
2017-05-26T16:50:02.118Z,49.11
2017-05-26T17:00:02.637Z,50.32
2017-05-26T17:10:02.365Z,49.1
2017-05-26T17:20:02.668Z,49.04
2017-05-26T17:30:02.098Z,49.13
2017-05-26T17:40:02.617Z,51.99
2017-05-26T17:50:02.574Z,52.1
2017-05-26T18:00:02.100Z,52.51
2017-05-26T18:10:02.102Z,54.79
2017-05-26T18:20:02.576Z,54.27
2017-05-26T18:30:03.003Z,55.78
2017-05-26T18:40:02.545Z,57.59
2017-05-26T18:50:02.329Z,58.43
2017-05-26T19:00:02.821Z,58.37
2017-05-26T19:10:02.126Z,60.89
2017-05-26T19:20:02.905Z,61.23
2017-05-26T19:30:02.385Z,61.67
2017-05-26T19:40:02.392Z,62.51
2017-05-26T19:50:02.565Z,64.16
2017-05-26T20:00:02.030Z,65.3
2017-05-26T20:10:02.212Z,66.52
2017-05-26T20:20:02.283Z,68.33
2017-05-26T20:30:02.762Z,69.05
2017-05-26T20:40:02.161Z,69.92
2017-05-26T20:50:02.955Z,70.37
2017-05-26T21:00:02.479Z,70.81
2017-05-26T21:10:02.421Z,72.34
2017-05-26T21:20:02.092Z,72.59
2017-05-26T21:30:02.525Z,73.25
2017-05-26T21:40:02.104Z,74.84
2017-05-26T21:50:02.061Z,75.55
2017-05-26T22:00:02.602Z,76.07
2017-05-26T22:10:02.940Z,77.29
2017-05-26T22:20:02.972Z,78.13
2017-05-26T22:30:02.395Z,78.06
2017-05-26T22:40:02.623Z,78.87
2017-05-26T22:50:02.113Z,79.08
2017-05-26T23:00:02.578Z,79.83
2017-05-26T23:10:02.112Z,81.27
2017-05-26T23:20:02.211Z,80.95
2017-05-26T23:30:02.663Z,82.18
2017-05-26T23:40:02.401Z,82.79
2017-05-26T23:50:02.865Z,82.47
